Time;durP1;ratioP1;P1;durP2;ratioP2;P2;SDS_P1;SDS_P2;PMS_P1;PMS_P2;Temp;Humidity;BMP_temperature;BMP_pressure;BME280_temperature;BME280_humidity;BME280_pressure;Samples;Min_cycle;Max_cycle;Signal;HPM_P1;HPM_P2
2022/10/21 00:00:57;;;;;;;7.75;7.00;;;16.40;99.90;;;;;;935826;149;27370;-78
2022/10/21 00:03:23;;;;;;;9.05;6.22;;;16.40;99.90;;;;;;935001;148;27357;-78
2022/10/21 00:05:50;;;;;;;7.42;6.72;;;16.40;99.90;;;;;;935190;148;27364;-78
2022/10/21 00:08:17;;;;;;;7.35;6.00;;;16.40;99.90;;;;;;934286;148;27295;-78
2022/10/21 00:10:43;;;;;;;6.72;6.03;;;16.40;99.90;;;;;;933607;148;27411;-78
2022/10/21 00:13:10;;;;;;;7.72;6.35;;;16.50;99.90;;;;;;934658;148;27370;-78
2022/10/21 00:15:36;;;;;;;7.58;6.53;;;16.50;99.90;;;;;;937292;147;27432;-78
2022/10/21 00:18:03;;;;;;;7.80;6.08;;;16.50;99.90;;;;;;934626;149;27295;-78
2022/10/21 00:20:29;;;;;;;7.40;5.95;;;16.50;99.90;;;;;;937768;149;27340;-78
2022/10/21 00:22:56;;;;;;;6.55;5.95;;;16.50;99.90;;;;;;934954;149;27385;-78
2022/10/21 00:25:23;;;;;;;8.38;6.00;;;16.50;99.90;;;;;;935793;148;27339;-78
2022/10/21 00:27:49;;;;;;;5.87;5.35;;;16.50;99.90;;;;;;935274;149;27369;-78
2022/10/21 00:30:17;;;;;;;6.00;5.50;;;16.50;99.90;;;;;;935138;149;27343;-78
2022/10/21 00:32:42;;;;;;;6.20;5.60;;;16.50;99.90;;;;;;937323;149;27346;-78
2022/10/21 00:35:09;;;;;;;7.03;5.83;;;16.50;99.90;;;;;;936181;149;27255;-78
2022/10/21 00:37:36;;;;;;;6.55;5.62;;;16.50;99.90;;;;;;937720;149;27457;-78
2022/10/21 00:40:02;;;;;;;7.50;5.25;;;16.50;99.90;;;;;;937040;149;27381;-78
2022/10/21 00:42:31;;;;;;;5.53;4.90;;;16.50;99.90;;;;;;934135;149;27357;-78
2022/10/21 00:45:07;;;;;;;9.90;5.20;;;16.50;99.90;;;;;;935168;149;27356;-78
2022/10/21 00:47:34;;;;;;;5.35;4.85;;;16.50;99.90;;;;;;936644;148;27367;-78
2022/10/21 00:50:00;;;;;;;8.15;5.25;;;16.50;99.90;;;;;;936077;148;27438;-78
2022/10/21 00:52:27;;;;;;;7.28;5.20;;;16.50;99.90;;;;;;934865;148;27349;-78
2022/10/21 00:54:53;;;;;;;6.58;5.35;;;16.50;99.90;;;;;;934436;148;27456;-78
2022/10/21 00:57:20;;;;;;;5.28;4.58;;;16.50;99.90;;;;;;933860;148;27381;-78
2022/10/21 00:59:55;;;;;;;6.22;5.28;;;16.50;99.90;;;;;;933613;148;27309;-78
2022/10/21 01:02:22;;;;;;;7.22;5.50;;;16.50;99.90;;;;;;934615;148;27377;-78
2022/10/21 01:04:48;;;;;;;5.95;5.35;;;16.40;99.90;;;;;;936993;149;27455;-78
2022/10/21 01:07:15;;;;;;;9.53;5.22;;;16.40;99.90;;;;;;935477;149;27482;-78
2022/10/21 01:09:41;;;;;;;9.53;6.30;;;16.40;99.90;;;;;;937637;149;27784;-78
2022/10/21 01:12:08;;;;;;;6.22;5.62;;;16.40;99.90;;;;;;936876;148;27363;-78
2022/10/21 01:14:55;;;;;;;7.15;5.67;;;16.30;99.90;;;;;;935401;148;28135;-78
2022/10/21 01:17:40;;;;;;;7.90;5.58;;;16.30;99.90;;;;;;934967;149;28501;-78
2022/10/21 01:20:21;;;;;;;6.28;5.45;;;16.30;99.90;;;;;;935145;149;27270;-78
2022/10/21 01:23:22;;;;;;;8.23;5.30;;;16.30;99.90;;;;;;934235;148;27323;-78
2022/10/21 01:26:06;;;;;;;8.60;5.25;;;16.20;99.90;;;;;;939019;148;27408;-78
2022/10/21 01:28:55;;;;;;;5.58;5.05;;;16.20;99.90;;;;;;935710;149;27675;-79
2022/10/21 01:31:39;;;;;;;6.12;5.62;;;16.20;99.90;;;;;;932313;148;27440;-78
2022/10/21 01:34:21;;;;;;;6.47;5.28;;;16.10;99.90;;;;;;935710;148;27462;-79
2022/10/21 01:36:56;;;;;;;5.67;5.17;;;16.10;99.90;;;;;;934642;148;27371;-79
2022/10/21 01:39:23;;;;;;;5.90;5.35;;;16.00;99.90;;;;;;935286;149;27420;-79
2022/10/21 01:42:02;;;;;;;6.97;6.28;;;16.00;99.90;;;;;;936131;149;27887;-79
2022/10/21 01:44:40;;;;;;;7.25;5.60;;;16.00;99.90;;;;;;934091;148;27550;-78
2022/10/21 01:47:06;;;;;;;6.40;5.80;;;16.00;99.90;;;;;;936124;149;27462;-79
2022/10/21 01:49:33;;;;;;;8.30;6.00;;;16.00;99.90;;;;;;934663;149;27275;-79
2022/10/21 01:51:59;;;;;;;7.17;5.67;;;16.00;99.90;;;;;;935825;149;27349;-79
2022/10/21 01:54:26;;;;;;;6.47;5.87;;;16.00;99.90;;;;;;936363;149;27329;-79
2022/10/21 01:56:52;;;;;;;7.33;5.67;;;16.00;99.90;;;;;;934529;149;27406;-79
2022/10/21 01:59:19;;;;;;;7.78;5.65;;;16.10;99.90;;;;;;936494;148;27370;-79
2022/10/21 02:01:46;;;;;;;5.95;5.45;;;16.10;99.90;;;;;;935458;148;27366;-79
2022/10/21 02:04:12;;;;;;;6.03;5.40;;;16.10;99.90;;;;;;935763;149;27288;-79
2022/10/21 02:06:39;;;;;;;8.05;5.90;;;16.20;99.90;;;;;;935834;149;27419;-79
2022/10/21 02:09:05;;;;;;;5.35;4.85;;;16.20;99.90;;;;;;935575;148;27700;-79
2022/10/21 02:11:32;;;;;;;5.85;5.30;;;16.20;99.90;;;;;;936726;148;27454;-79
2022/10/21 02:13:59;;;;;;;9.13;5.65;;;16.20;99.90;;;;;;936666;149;27459;-79
2022/10/21 02:16:25;;;;;;;5.80;5.20;;;16.10;99.90;;;;;;934371;149;27439;-79
2022/10/21 02:18:52;;;;;;;6.37;5.00;;;16.10;99.90;;;;;;934433;148;27409;-79
2022/10/21 02:21:18;;;;;;;5.65;5.12;;;16.10;99.90;;;;;;934960;149;27334;-79
2022/10/21 02:23:54;;;;;;;4.92;4.42;;;16.10;99.90;;;;;;932125;149;27408;-79
2022/10/21 02:26:20;;;;;;;5.58;5.08;;;16.00;99.90;;;;;;935944;149;27452;-79
2022/10/21 02:28:47;;;;;;;7.05;5.50;;;16.00;99.90;;;;;;936988;148;27395;-79
2022/10/21 02:31:16;;;;;;;8.88;4.95;;;16.00;99.90;;;;;;936277;149;27438;-79
2022/10/21 02:33:51;;;;;;;6.40;5.00;;;16.00;99.90;;;;;;935718;148;27363;-79
2022/10/21 02:36:17;;;;;;;7.27;5.00;;;16.00;99.90;;;;;;934687;149;27455;-79
2022/10/21 02:38:44;;;;;;;7.78;5.28;;;16.00;99.90;;;;;;928196;148;27427;-79
2022/10/21 02:41:11;;;;;;;7.03;4.55;;;16.00;99.90;;;;;;936160;149;27324;-79
2022/10/21 02:43:56;;;;;;;7.37;4.90;;;16.10;99.90;;;;;;934082;149;27444;-79
2022/10/21 02:46:22;;;;;;;5.33;4.53;;;16.10;99.90;;;;;;935349;148;27319;-79
2022/10/21 02:48:49;;;;;;;6.17;4.72;;;16.10;99.90;;;;;;934461;149;27398;-79
2022/10/21 02:51:16;;;;;;;7.37;4.45;;;16.10;99.90;;;;;;936248;148;27366;-79
2022/10/21 02:53:42;;;;;;;5.08;4.58;;;16.10;99.90;;;;;;933932;149;27360;-79
2022/10/21 02:56:09;;;;;;;7.85;5.55;;;16.10;99.90;;;;;;932390;149;27323;-79
2022/10/21 02:58:35;;;;;;;6.35;4.85;;;16.10;99.90;;;;;;935896;149;27290;-79
2022/10/21 03:01:02;;;;;;;9.98;5.12;;;16.10;99.90;;;;;;935537;149;27466;-80
2022/10/21 03:03:28;;;;;;;8.93;5.90;;;16.10;99.90;;;;;;934584;149;27382;-80
2022/10/21 03:05:55;;;;;;;6.40;5.15;;;16.10;99.90;;;;;;936412;149;27318;-79
2022/10/21 03:08:22;;;;;;;8.27;5.77;;;16.10;99.90;;;;;;936092;149;27402;-80
2022/10/21 03:10:49;;;;;;;7.30;5.62;;;16.10;99.90;;;;;;936815;149;27366;-79
2022/10/21 03:13:15;;;;;;;5.90;5.10;;;16.10;99.90;;;;;;935401;148;27370;-78
2022/10/21 03:15:41;;;;;;;6.25;5.25;;;16.10;99.90;;;;;;933137;148;27369;-79
2022/10/21 03:18:08;;;;;;;6.45;5.58;;;16.10;99.90;;;;;;934781;149;27334;-79
2022/10/21 03:20:35;;;;;;;6.40;5.30;;;16.10;99.90;;;;;;935143;148;27347;-79
2022/10/21 03:23:01;;;;;;;6.08;5.45;;;16.10;99.90;;;;;;934304;149;27404;-79
2022/10/21 03:25:28;;;;;;;6.53;5.90;;;16.10;99.90;;;;;;936438;149;27417;-79
2022/10/21 03:27:54;;;;;;;6.67;5.53;;;16.10;99.90;;;;;;936086;149;27754;-80
2022/10/21 03:30:21;;;;;;;6.00;5.25;;;16.10;99.90;;;;;;935857;149;27555;-80
2022/10/21 03:32:48;;;;;;;7.17;5.53;;;16.10;99.90;;;;;;936418;148;27252;-80
2022/10/21 03:35:14;;;;;;;9.48;5.95;;;16.00;99.90;;;;;;935453;148;28226;-79
2022/10/21 03:37:41;;;;;;;6.55;5.72;;;16.00;99.90;;;;;;933615;149;27329;-79
2022/10/21 03:40:07;;;;;;;6.58;5.20;;;16.00;99.90;;;;;;936478;149;27372;-79
2022/10/21 03:42:34;;;;;;;9.20;6.28;;;16.00;99.90;;;;;;935176;148;27448;-80
2022/10/21 03:45:01;;;;;;;6.97;6.20;;;15.90;99.90;;;;;;936228;149;27410;-79
2022/10/21 03:47:27;;;;;;;6.05;5.45;;;15.90;99.90;;;;;;937538;148;27454;-79
2022/10/21 03:49:54;;;;;;;7.50;5.75;;;15.90;99.90;;;;;;937059;148;27325;-79
2022/10/21 03:52:20;;;;;;;6.05;5.53;;;15.90;99.90;;;;;;937706;148;27378;-78
2022/10/21 03:54:47;;;;;;;7.20;5.95;;;15.90;99.90;;;;;;936633;148;27378;-79
2022/10/21 03:57:13;;;;;;;7.12;5.50;;;15.90;99.90;;;;;;936358;148;27353;-80
2022/10/21 03:59:40;;;;;;;7.28;5.72;;;15.90;99.90;;;;;;934446;149;27325;-80
2022/10/21 04:02:07;;;;;;;7.87;6.20;;;15.90;99.90;;;;;;936159;148;27458;-79
2022/10/21 04:04:33;;;;;;;7.60;5.72;;;15.90;99.90;;;;;;936076;149;27454;-78
2022/10/21 04:07:00;;;;;;;7.10;5.55;;;15.90;99.90;;;;;;935611;149;27563;-80
2022/10/21 04:09:26;;;;;;;6.12;5.47;;;15.80;99.90;;;;;;927925;149;27409;-79
2022/10/21 04:11:53;;;;;;;7.65;6.65;;;15.80;99.90;;;;;;928772;152;27864;-80
2022/10/21 04:14:20;;;;;;;6.87;6.10;;;15.80;99.90;;;;;;927355;152;27356;-79
2022/10/21 04:16:46;;;;;;;6.67;5.97;;;15.80;99.90;;;;;;927969;152;27443;-79
2022/10/21 04:19:16;;;;;;;6.30;5.70;;;15.80;99.90;;;;;;930947;152;27462;-78
2022/10/21 04:21:42;;;;;;;10.28;6.33;;;15.80;99.90;;;;;;927497;151;27467;-80
2022/10/21 04:24:09;;;;;;;7.75;6.50;;;15.80;99.90;;;;;;928692;152;27390;-78
2022/10/21 04:26:35;;;;;;;6.50;5.87;;;15.80;99.90;;;;;;928073;150;27296;-80
2022/10/21 04:29:02;;;;;;;8.20;6.75;;;15.80;99.90;;;;;;929823;150;27358;-79
2022/10/21 04:31:29;;;;;;;7.55;6.30;;;15.80;99.90;;;;;;928742;150;27493;-79
2022/10/21 04:33:55;;;;;;;7.72;5.95;;;15.80;99.90;;;;;;929905;152;27475;-80
2022/10/21 04:36:22;;;;;;;6.83;5.95;;;15.70;99.90;;;;;;928441;150;27325;-80
2022/10/21 04:38:48;;;;;;;7.15;6.22;;;15.70;99.90;;;;;;926364;152;27346;-80
2022/10/21 04:41:15;;;;;;;7.78;6.00;;;15.70;99.90;;;;;;929572;150;27337;-80
2022/10/21 04:43:42;;;;;;;8.68;6.12;;;15.70;99.90;;;;;;927050;150;27342;-78
2022/10/21 04:46:13;;;;;;;7.27;6.37;;;15.70;99.90;;;;;;928689;152;27753;-80
2022/10/21 04:48:37;;;;;;;9.43;6.65;;;15.70;99.90;;;;;;927994;150;27362;-80
2022/10/21 04:51:04;;;;;;;8.33;6.50;;;15.70;99.90;;;;;;926852;150;27344;-79
2022/10/21 04:53:31;;;;;;;6.00;5.40;;;15.70;99.90;;;;;;920415;154;27370;-79
2022/10/21 04:55:57;;;;;;;9.80;7.30;;;15.70;99.90;;;;;;936039;151;27365;-77
2022/10/21 04:58:24;;;;;;;8.05;6.15;;;15.80;99.90;;;;;;934592;149;27466;-79
2022/10/21 05:00:50;;;;;;;7.05;5.80;;;15.80;99.90;;;;;;920235;151;27384;-79
2022/10/21 05:03:17;;;;;;;7.37;5.58;;;15.80;99.90;;;;;;918970;151;27307;-77
2022/10/21 05:05:44;;;;;;;6.87;6.08;;;15.80;99.90;;;;;;919746;154;27398;-78
2022/10/21 05:08:10;;;;;;;7.53;5.70;;;15.80;99.90;;;;;;918676;150;27431;-78
2022/10/21 05:10:37;;;;;;;6.53;5.90;;;15.80;99.90;;;;;;928209;150;27378;-79
2022/10/21 05:13:04;;;;;;;10.10;5.97;;;15.80;99.90;;;;;;927116;149;27375;-79
2022/10/21 05:15:30;;;;;;;9.23;5.47;;;15.80;99.90;;;;;;927773;149;27315;-80
2022/10/21 05:17:57;;;;;;;6.62;5.50;;;15.80;99.90;;;;;;927704;150;27372;-79
2022/10/21 05:20:23;;;;;;;7.20;6.12;;;15.80;99.90;;;;;;929475;149;27461;-78
2022/10/21 05:22:50;;;;;;;8.33;6.90;;;15.80;99.90;;;;;;929219;149;27336;-77
2022/10/21 05:25:16;;;;;;;6.70;6.08;;;15.80;99.90;;;;;;930685;149;27386;-79
2022/10/21 05:27:43;;;;;;;7.58;6.10;;;15.80;99.90;;;;;;926876;149;27405;-78
2022/10/21 05:30:10;;;;;;;11.05;5.97;;;15.80;99.90;;;;;;930198;149;27325;-79
2022/10/21 05:32:36;;;;;;;7.08;5.67;;;15.80;99.90;;;;;;927600;149;27425;-79
2022/10/21 05:35:03;;;;;;;10.08;7.03;;;15.90;99.90;;;;;;931105;149;27295;-78
2022/10/21 05:37:29;;;;;;;7.00;6.37;;;15.80;99.90;;;;;;930220;149;27799;-78
2022/10/21 05:39:56;;;;;;;9.63;5.78;;;15.80;99.90;;;;;;928902;150;27506;-78
2022/10/21 05:42:22;;;;;;;10.03;6.70;;;15.80;99.90;;;;;;930928;150;27801;-79
2022/10/21 05:44:49;;;;;;;7.92;6.65;;;15.80;99.90;;;;;;928782;149;27379;-78
2022/10/21 05:47:16;;;;;;;10.32;6.60;;;15.80;99.90;;;;;;929716;150;27448;-77
2022/10/21 05:49:42;;;;;;;8.18;5.87;;;15.80;99.90;;;;;;929240;150;27378;-77
2022/10/21 05:52:09;;;;;;;11.40;6.47;;;15.80;99.90;;;;;;929888;150;27461;-77
2022/10/21 05:54:35;;;;;;;7.05;6.25;;;15.80;99.90;;;;;;918918;150;27465;-79
2022/10/21 05:57:02;;;;;;;12.78;6.62;;;15.80;99.90;;;;;;931770;149;27389;-79
2022/10/21 05:59:29;;;;;;;10.82;6.95;;;15.80;99.90;;;;;;933672;149;27407;-79
2022/10/21 06:01:55;;;;;;;9.43;6.47;;;15.80;99.90;;;;;;933291;149;27413;-77
2022/10/21 06:04:22;;;;;;;8.60;6.67;;;15.80;99.90;;;;;;934153;149;27353;-78
2022/10/21 06:06:48;;;;;;;7.15;6.45;;;15.90;99.90;;;;;;933244;149;27498;-79
2022/10/21 06:09:15;;;;;;;8.15;6.40;;;15.90;99.90;;;;;;932750;149;27517;-77
2022/10/21 06:11:42;;;;;;;8.25;6.80;;;15.90;99.90;;;;;;931699;149;27363;-79
2022/10/21 06:14:08;;;;;;;9.10;6.78;;;15.80;99.90;;;;;;931147;149;27427;-79
2022/10/21 06:16:35;;;;;;;7.97;6.30;;;15.80;99.90;;;;;;931835;149;27394;-80
2022/10/21 06:19:01;;;;;;;8.00;6.33;;;15.80;99.90;;;;;;930776;149;27955;-80
2022/10/21 06:21:28;;;;;;;8.05;6.85;;;15.80;99.90;;;;;;932846;149;27365;-80
2022/10/21 06:23:55;;;;;;;7.30;6.58;;;15.80;99.90;;;;;;933868;149;27335;-80
2022/10/21 06:26:21;;;;;;;7.37;6.75;;;15.90;99.90;;;;;;933394;149;27358;-80
2022/10/21 06:28:48;;;;;;;8.38;7.03;;;15.90;99.90;;;;;;932157;149;27460;-80
2022/10/21 06:31:14;;;;;;;7.67;6.95;;;15.90;99.90;;;;;;932158;149;27356;-80
2022/10/21 06:33:41;;;;;;;8.65;7.05;;;15.90;99.90;;;;;;931270;149;27351;-79
2022/10/21 06:36:07;;;;;;;7.60;6.87;;;16.00;99.90;;;;;;932668;149;27333;-79
2022/10/21 06:38:35;;;;;;;7.20;6.47;;;15.90;99.90;;;;;;931271;149;27369;-79
2022/10/21 06:41:01;;;;;;;7.42;6.72;;;16.00;99.90;;;;;;931731;149;27408;-79
2022/10/21 06:43:27;;;;;;;7.47;6.78;;;16.00;99.90;;;;;;931290;149;27471;-79
2022/10/21 06:45:54;;;;;;;7.28;6.35;;;16.10;99.90;;;;;;932711;149;27420;-79
2022/10/21 06:48:20;;;;;;;8.03;7.17;;;16.10;99.90;;;;;;931407;149;27419;-79
2022/10/21 06:50:47;;;;;;;7.15;5.97;;;16.10;99.90;;;;;;931959;149;27347;-79
2022/10/21 06:53:14;;;;;;;6.85;6.17;;;16.10;99.90;;;;;;932009;149;27348;-79
2022/10/21 06:55:40;;;;;;;7.25;6.55;;;16.10;99.90;;;;;;932562;149;27443;-79
2022/10/21 06:58:07;;;;;;;7.20;6.58;;;16.10;99.90;;;;;;931106;149;27375;-79
2022/10/21 07:00:33;;;;;;;8.20;6.40;;;16.20;99.90;;;;;;932326;149;27358;-79
2022/10/21 07:03:00;;;;;;;7.35;6.62;;;16.20;99.90;;;;;;932447;149;27339;-79
2022/10/21 07:05:27;;;;;;;7.97;6.33;;;16.20;99.90;;;;;;931898;149;27500;-79
2022/10/21 07:07:53;;;;;;;9.78;6.47;;;16.20;99.90;;;;;;932077;149;27365;-79
2022/10/21 07:10:20;;;;;;;8.40;6.30;;;16.30;99.90;;;;;;932981;149;27413;-79
2022/10/21 07:12:46;;;;;;;8.55;6.75;;;16.30;99.90;;;;;;932138;149;27334;-79
2022/10/21 07:15:13;;;;;;;6.78;6.17;;;16.30;99.90;;;;;;933665;149;27883;-79
2022/10/21 07:17:39;;;;;;;7.20;6.42;;;16.30;99.90;;;;;;933626;149;27269;-79
2022/10/21 07:20:06;;;;;;;7.97;6.70;;;16.40;99.90;;;;;;931412;149;27307;-79
2022/10/21 07:22:34;;;;;;;8.10;6.75;;;16.40;99.90;;;;;;931629;149;27402;-79
2022/10/21 07:24:59;;;;;;;10.32;5.97;;;16.40;99.90;;;;;;932283;149;27796;-79
2022/10/21 07:27:26;;;;;;;7.55;6.28;;;16.50;99.90;;;;;;931745;149;27277;-79
2022/10/21 07:29:52;;;;;;;7.40;6.10;;;16.50;99.90;;;;;;930544;149;27415;-79
2022/10/21 07:32:19;;;;;;;6.62;5.97;;;16.50;99.90;;;;;;932162;149;27354;-79
2022/10/21 07:34:46;;;;;;;8.55;6.78;;;16.50;99.90;;;;;;932644;149;27377;-79
2022/10/21 07:37:12;;;;;;;8.03;6.72;;;16.50;99.90;;;;;;931854;149;27385;-79
2022/10/21 07:39:39;;;;;;;7.78;7.08;;;16.50;99.90;;;;;;933137;149;27365;-79
2022/10/21 07:42:05;;;;;;;7.33;6.25;;;16.60;99.90;;;;;;931471;149;27441;-79
2022/10/21 07:44:32;;;;;;;7.03;6.42;;;16.60;99.90;;;;;;932997;149;27429;-79
2022/10/21 07:46:59;;;;;;;8.25;6.72;;;16.60;99.90;;;;;;933088;149;27870;-79
2022/10/21 07:49:25;;;;;;;8.30;6.67;;;16.60;99.90;;;;;;932645;149;27446;-79
2022/10/21 07:51:53;;;;;;;8.80;6.22;;;16.60;99.90;;;;;;931646;149;27386;-79
2022/10/21 07:54:18;;;;;;;10.88;6.35;;;16.60;99.90;;;;;;931091;149;27388;-79
2022/10/21 07:56:45;;;;;;;8.50;6.47;;;16.60;99.90;;;;;;931570;149;27880;-79
2022/10/21 07:59:11;;;;;;;6.85;6.25;;;16.60;99.90;;;;;;932108;149;27307;-78
2022/10/21 08:01:39;;;;;;;7.17;6.17;;;16.60;99.90;;;;;;931295;149;27444;-78
2022/10/21 08:04:05;;;;;;;7.60;6.75;;;16.60;99.90;;;;;;933802;149;27756;-78
2022/10/21 08:06:31;;;;;;;8.50;6.33;;;16.60;99.90;;;;;;934570;149;27309;-78
2022/10/21 08:08:58;;;;;;;7.37;6.10;;;16.60;99.90;;;;;;933411;149;27367;-78
2022/10/21 08:11:27;;;;;;;6.78;5.97;;;16.60;99.90;;;;;;931131;149;27383;-78
2022/10/21 08:13:54;;;;;;;5.97;5.42;;;16.60;99.90;;;;;;933517;149;27378;-78
2022/10/21 08:16:20;;;;;;;6.47;5.83;;;16.70;99.90;;;;;;932882;149;28774;-78
2022/10/21 08:18:47;;;;;;;10.95;6.55;;;16.70;99.90;;;;;;933130;149;27333;-78
2022/10/21 08:21:13;;;;;;;10.85;6.28;;;16.70;99.90;;;;;;931607;149;27376;-78
2022/10/21 08:23:40;;;;;;;6.50;5.90;;;16.70;99.90;;;;;;935276;149;27347;-78
2022/10/21 08:26:07;;;;;;;7.08;6.25;;;16.70;99.90;;;;;;934014;149;27494;-78
2022/10/21 08:28:33;;;;;;;8.63;6.12;;;16.70;99.90;;;;;;930548;149;27359;-78
2022/10/21 08:31:06;;;;;;;6.85;6.20;;;16.70;99.90;;;;;;932093;149;27297;-78
2022/10/21 08:33:32;;;;;;;6.75;6.15;;;16.80;99.90;;;;;;933108;149;27428;-78
2022/10/21 08:35:59;;;;;;;8.35;5.97;;;16.80;99.90;;;;;;931162;149;27331;-79
2022/10/21 08:38:26;;;;;;;9.50;6.12;;;16.80;99.90;;;;;;931844;149;27315;-79
2022/10/21 08:40:52;;;;;;;8.10;6.65;;;16.80;99.90;;;;;;933117;149;27509;-79
2022/10/21 08:43:21;;;;;;;8.53;6.65;;;16.80;99.90;;;;;;931251;149;27411;-79
2022/10/21 08:45:56;;;;;;;8.63;6.35;;;16.90;99.90;;;;;;932435;149;27400;-79
2022/10/21 08:48:23;;;;;;;6.10;5.28;;;16.90;99.90;;;;;;930905;149;27454;-78
2022/10/21 08:50:50;;;;;;;6.60;5.97;;;16.90;99.90;;;;;;930423;149;27473;-78
2022/10/21 08:53:40;;;;;;;7.60;6.05;;;17.00;99.90;;;;;;935395;149;27346;-78
2022/10/21 08:56:07;;;;;;;8.53;5.78;;;17.00;99.90;;;;;;922959;153;28131;-78
2022/10/21 08:58:33;;;;;;;7.22;6.42;;;17.00;99.90;;;;;;926095;153;27322;-79
2022/10/21 09:01:03;;;;;;;7.60;6.00;;;17.10;99.90;;;;;;926705;152;27324;-78
2022/10/21 09:03:53;;;;;;;6.87;5.80;;;17.10;99.90;;;;;;927358;150;27391;-78
2022/10/21 09:06:26;;;;;;;8.93;6.08;;;17.10;99.90;;;;;;932112;148;27359;-78
2022/10/21 09:09:05;;;;;;;6.67;5.45;;;17.10;99.90;;;;;;933483;148;27316;-78
2022/10/21 09:11:46;;;;;;;9.60;6.17;;;17.20;99.90;;;;;;934589;148;27555;-78
2022/10/21 09:14:31;;;;;;;7.53;5.85;;;17.20;99.90;;;;;;934639;148;27366;-78
2022/10/21 09:17:20;;;;;;;6.90;5.62;;;17.10;99.90;;;;;;935525;151;27368;-78
2022/10/21 09:19:46;;;;;;;7.90;6.20;;;17.20;99.90;;;;;;935597;151;27451;-79
2022/10/21 09:22:33;;;;;;;7.37;5.97;;;17.20;99.90;;;;;;932238;151;27659;-80
2022/10/21 09:25:00;;;;;;;10.58;5.72;;;17.20;99.90;;;;;;934808;148;27470;-79
2022/10/21 09:27:27;;;;;;;7.90;5.75;;;17.20;99.90;;;;;;929465;148;27277;-78
2022/10/21 09:29:56;;;;;;;6.67;5.40;;;17.30;99.90;;;;;;934555;151;27399;-79
2022/10/21 09:32:23;;;;;;;8.70;5.67;;;17.30;99.90;;;;;;933226;151;27370;-78
2022/10/21 09:34:52;;;;;;;6.10;5.53;;;17.40;99.90;;;;;;936032;148;27342;-79
2022/10/21 09:37:25;;;;;;;7.53;5.60;;;17.40;99.90;;;;;;933825;151;27438;-79
2022/10/21 09:39:57;;;;;;;9.08;5.70;;;17.40;99.90;;;;;;933247;151;27353;-79
2022/10/21 09:42:23;;;;;;;6.15;5.53;;;17.40;99.90;;;;;;935758;151;27370;-78
2022/10/21 09:44:50;;;;;;;6.97;5.65;;;17.50;99.90;;;;;;934704;151;27836;-79
2022/10/21 09:47:23;;;;;;;5.65;5.15;;;17.50;99.90;;;;;;936673;151;27324;-80
2022/10/21 09:49:49;;;;;;;7.45;5.60;;;17.50;99.90;;;;;;934235;151;27323;-79
2022/10/21 09:52:16;;;;;;;7.60;5.62;;;17.50;99.90;;;;;;936411;151;27313;-79
2022/10/21 09:54:42;;;;;;;8.63;5.87;;;17.50;99.90;;;;;;934441;149;27359;-79
2022/10/21 09:57:14;;;;;;;5.67;5.17;;;17.60;99.90;;;;;;935220;148;27345;-78
2022/10/21 09:59:59;;;;;;;6.58;5.45;;;17.60;99.90;;;;;;930897;152;27301;-79
2022/10/21 10:02:31;;;;;;;9.03;5.67;;;17.60;99.90;;;;;;909483;152;27319;-78
2022/10/21 10:04:58;;;;;;;7.28;6.58;;;17.60;99.90;;;;;;929991;152;27300;-78
2022/10/21 10:07:34;;;;;;;7.33;5.80;;;17.60;99.90;;;;;;916016;155;27748;-79
2022/10/21 10:10:00;;;;;;;6.35;5.75;;;17.60;99.90;;;;;;936246;148;27366;-79
2022/10/21 10:12:27;;;;;;;7.20;5.45;;;17.60;99.90;;;;;;935347;148;27363;-79
2022/10/21 10:14:54;;;;;;;9.15;6.50;;;17.60;99.90;;;;;;934146;148;27409;-79
2022/10/21 10:17:29;;;;;;;9.43;5.40;;;17.70;99.90;;;;;;932562;148;27254;-78
2022/10/21 10:20:04;;;;;;;8.33;6.37;;;17.70;99.90;;;;;;933852;148;27439;-79
2022/10/21 10:22:43;;;;;;;8.08;5.85;;;17.70;99.90;;;;;;934986;148;27352;-79
2022/10/21 10:25:23;;;;;;;7.22;5.97;;;17.80;99.90;;;;;;936871;148;27370;-78
2022/10/21 10:27:48;;;;;;;7.00;5.80;;;17.80;99.90;;;;;;933422;148;27355;-79
2022/10/21 10:30:14;;;;;;;6.90;5.87;;;17.80;99.90;;;;;;934117;148;27357;-78
2022/10/21 10:32:41;;;;;;;8.93;6.22;;;17.90;99.90;;;;;;937748;147;27653;-79
2022/10/21 10:35:08;;;;;;;7.90;6.95;;;17.90;99.90;;;;;;935166;148;27352;-79
2022/10/21 10:37:34;;;;;;;8.83;5.47;;;17.90;99.90;;;;;;933560;148;27447;-79
2022/10/21 10:40:01;;;;;;;6.17;5.58;;;18.00;99.90;;;;;;933507;148;27347;-79
2022/10/21 10:42:27;;;;;;;9.38;5.47;;;18.00;99.90;;;;;;932903;148;27323;-79
2022/10/21 10:44:54;;;;;;;6.42;5.83;;;18.00;99.90;;;;;;933970;148;27389;-79
2022/10/21 10:47:23;;;;;;;7.72;5.22;;;18.00;99.90;;;;;;934760;148;27339;-79
2022/10/21 10:49:50;;;;;;;5.60;5.10;;;18.10;99.90;;;;;;933546;148;27336;-79
2022/10/21 10:52:20;;;;;;;5.70;5.20;;;18.10;99.90;;;;;;933863;148;27287;-79
2022/10/21 10:54:43;;;;;;;6.15;4.55;;;18.10;99.90;;;;;;934945;148;27357;-78
2022/10/21 10:57:12;;;;;;;5.25;4.67;;;18.20;99.90;;;;;;931879;148;27432;-79
2022/10/21 10:59:48;;;;;;;7.20;5.00;;;18.20;99.90;;;;;;936971;147;27348;-79
2022/10/21 11:02:48;;;;;;;5.35;4.85;;;18.20;99.90;;;;;;939614;147;27421;-79
2022/10/21 11:05:17;;;;;;;5.03;4.03;;;18.30;99.90;;;;;;935850;148;27322;-79
2022/10/21 11:07:47;;;;;;;7.67;4.78;;;18.30;99.90;;;;;;933262;148;27337;-78
2022/10/21 11:10:19;;;;;;;5.62;4.70;;;18.40;99.90;;;;;;934218;148;27456;-78
2022/10/21 11:12:46;;;;;;;4.87;4.30;;;18.40;99.90;;;;;;927755;149;27415;-78
2022/10/21 11:15:15;;;;;;;5.80;4.55;;;18.50;99.90;;;;;;918662;152;27443;-78
2022/10/21 11:17:45;;;;;;;5.47;4.20;;;18.50;99.90;;;;;;936659;148;27667;-79
2022/10/21 11:20:14;;;;;;;4.92;4.28;;;18.60;99.90;;;;;;934306;151;27390;-79
2022/10/21 11:22:43;;;;;;;4.65;4.05;;;18.70;99.90;;;;;;936242;151;27337;-79
2022/10/21 11:25:25;;;;;;;5.12;4.10;;;18.70;99.90;;;;;;934085;148;27411;-79
2022/10/21 11:28:03;;;;;;;4.30;3.60;;;18.80;99.90;;;;;;934246;151;27449;-79
2022/10/21 11:30:30;;;;;;;6.35;3.55;;;18.90;99.90;;;;;;934720;151;27468;-79
2022/10/21 11:33:02;;;;;;;2.80;2.60;;;18.90;99.90;;;;;;917903;151;27391;-80
2022/10/21 11:35:28;;;;;;;3.50;3.10;;;19.00;99.90;;;;;;917174;151;27292;-79
2022/10/21 11:38:17;;;;;;;3.75;2.37;;;19.00;99.90;;;;;;934454;148;27323;-79
2022/10/21 11:41:02;;;;;;;3.98;2.30;;;19.10;99.90;;;;;;934777;151;27300;-80
2022/10/21 11:43:33;;;;;;;3.47;1.98;;;19.10;99.90;;;;;;933022;151;27451;-79
2022/10/21 11:46:06;;;;;;;2.45;2.25;;;19.20;99.90;;;;;;935340;148;27476;-80
2022/10/21 11:48:57;;;;;;;3.08;2.10;;;19.20;99.90;;;;;;934897;149;27393;-80
2022/10/21 11:51:39;;;;;;;4.00;2.35;;;19.20;99.90;;;;;;935029;149;27423;-79
2022/10/21 11:54:26;;;;;;;2.65;2.30;;;19.30;99.90;;;;;;934533;151;27317;-80
2022/10/21 11:56:56;;;;;;;2.20;1.77;;;19.30;99.90;;;;;;934395;148;27429;-79
2022/10/21 11:59:28;;;;;;;2.08;1.90;;;19.40;99.90;;;;;;933253;151;27495;-79
2022/10/21 12:02:19;;;;;;;6.97;6.15;;;19.50;99.90;;;;;;935801;149;27301;-80
2022/10/21 12:05:07;;;;;;;10.80;9.60;;;19.60;99.90;;;;;;933572;148;27470;-78
2022/10/21 12:08:03;;;;;;;6.55;5.75;;;19.70;99.90;;;;;;934729;151;27350;-78
2022/10/21 12:10:51;;;;;;;4.58;3.25;;;19.90;99.90;;;;;;935733;149;27438;-79
2022/10/21 12:13:42;;;;;;;7.65;3.98;;;20.00;99.90;;;;;;939688;146;27412;-78
2022/10/21 12:16:08;;;;;;;2.87;2.58;;;20.10;99.90;;;;;;950277;146;27360;-80
2022/10/21 12:18:35;;;;;;;1.65;1.50;;;20.10;99.90;;;;;;951852;146;27287;-80
2022/10/21 12:21:01;;;;;;;3.02;1.72;;;20.20;99.90;;;;;;950072;146;27326;-79
2022/10/21 12:23:28;;;;;;;4.83;4.03;;;20.40;99.90;;;;;;952205;146;27363;-78
2022/10/21 12:26:07;;;;;;;4.28;2.90;;;20.40;99.90;;;;;;950223;146;27434;-81
2022/10/21 12:28:33;;;;;;;1.50;1.40;;;20.60;99.90;;;;;;952763;146;28299;-80
2022/10/21 12:31:06;;;;;;;1.07;0.80;;;20.70;99.90;;;;;;952779;146;27333;-80
2022/10/21 12:33:35;;;;;;;0.70;0.70;;;20.80;99.90;;;;;;949998;146;27386;-80
2022/10/21 12:36:14;;;;;;;3.83;1.00;;;21.00;99.90;;;;;;950670;146;27440;-79
2022/10/21 12:38:49;;;;;;;1.02;0.90;;;21.10;99.90;;;;;;935314;146;27355;-79
2022/10/21 12:41:27;;;;;;;1.00;1.00;;;21.20;99.90;;;;;;951065;146;27285;-80
2022/10/21 12:44:00;;;;;;;0.65;0.60;;;21.40;99.90;;;;;;953830;146;27370;-79
2022/10/21 12:46:26;;;;;;;0.82;0.45;;;21.50;99.90;;;;;;950955;146;27450;-79
2022/10/21 12:48:53;;;;;;;0.70;0.70;;;21.50;99.90;;;;;;951832;146;27441;-79
2022/10/21 12:51:25;;;;;;;1.95;0.60;;;21.60;99.90;;;;;;950745;146;27364;-79
2022/10/21 12:53:52;;;;;;;0.70;0.62;;;21.60;99.90;;;;;;949928;146;27336;-80
2022/10/21 12:56:37;;;;;;;0.70;0.70;;;21.60;99.90;;;;;;951822;146;27438;-80